Saga — 9HA2591 — position and weather

sailwx.info

Track history (hours):
 
Tides and Currents Weather Stations Pressure Air Temp Water Temp Dewpoint Dewpoint Depression Visibility Wind Speed Wind Dir Waves Ship Positions

Saga

Last reported at 2018-Jun-23 19:25 UTC. Time now 2018-Jun-24 15:07 UTC.
Position N 36°49' E 013°04'.

Length 249 m; draft 13.4 m.

Type: Tanker. MMSI: 248964000.

Date/timePositionNaut miles runAvg speedWind from/ knotsBaromVisibWave heightAir tempDewpointWater temp
2018-Jun-23 19:25N 36°49' E 013°04'511.8
2018-Jun-23 18:57N 36°47' E 013°10'511.9
2018-Jun-23 18:30N 36°45' E 013°16'612.1
2018-Jun-23 18:00N 36°44' E 013°24'712.0
2018-Jun-23 17:27N 36°42' E 013°32'511.6
2018-Jun-23 17:00N 36°40' E 013°38'611.6
2018-Jun-23 16:29N 36°38' E 013°45'611.7
2018-Jun-23 16:00N 36°36' E 013°52'611.3
2018-Jun-23 15:30N 36°35' E 013°58'611.1
2018-Jun-23 15:00N 36°33' E 014°05'711.2
2018-Jun-23 14:23N 36°31' E 014°13'411.4
2018-Jun-23 14:00N 36°29' E 014°18'611.6
2018-Jun-23 13:30N 36°28' E 014°25'611.9
2018-Jun-23 13:00N 36°26' E 014°32'612.0
2018-Jun-23 12:30N 36°24' E 014°39'611.6
2018-Jun-23 12:00N 36°23' E 014°46'611.6
2018-Jun-23 11:30N 36°21' E 014°53'611.6
2018-Jun-23 11:00N 36°20' E 015°00'611.6
2018-Jun-23 10:30N 36°18' E 015°07'  
2018-Jun-15 08:54N 44°17' E 014°12'1411.9
2018-Jun-15 07:43N 44°30' E 014°04'312.0
2018-Jun-15 07:30N 44°33' E 014°04'911.8
2018-Jun-15 06:45N 44°41' E 014°05'312.6
2018-Jun-15 06:30N 44°44' E 014°07'35 4.0
2018-Jun-14 21:49N 45°15' E 014°30'2 0.1
2018-Jun-13 20:09N 45°13' E 014°32'  
Track history (hours):
 
Tides and Currents Weather Stations Pressure Air Temp Water Temp Dewpoint Dewpoint Depression Visibility Wind Speed Wind Dir Waves Ship Positions

Saga

Last reported at 2018-Jun-23 19:25 UTC. Time now 2018-Jun-24 15:07 UTC.
Position N 36°49' E 013°04'.

Length 249 m; draft 13.4 m.

Type: Tanker. MMSI: 248964000.

Date/timePositionNaut miles runAvg speedWind from/ knotsBaromVisibWave heightAir tempDewpointWater temp
2018-Jun-23 19:25N 36°49' E 013°04'511.8
2018-Jun-23 18:57N 36°47' E 013°10'511.9
2018-Jun-23 18:30N 36°45' E 013°16'612.1
2018-Jun-23 18:00N 36°44' E 013°24'712.0
2018-Jun-23 17:27N 36°42' E 013°32'511.6
2018-Jun-23 17:00N 36°40' E 013°38'611.6
2018-Jun-23 16:29N 36°38' E 013°45'611.7
2018-Jun-23 16:00N 36°36' E 013°52'611.3
2018-Jun-23 15:30N 36°35' E 013°58'611.1
2018-Jun-23 15:00N 36°33' E 014°05'711.2
2018-Jun-23 14:23N 36°31' E 014°13'411.4
2018-Jun-23 14:00N 36°29' E 014°18'611.6
2018-Jun-23 13:30N 36°28' E 014°25'611.9
2018-Jun-23 13:00N 36°26' E 014°32'612.0
2018-Jun-23 12:30N 36°24' E 014°39'611.6
2018-Jun-23 12:00N 36°23' E 014°46'611.6
2018-Jun-23 11:30N 36°21' E 014°53'611.6
2018-Jun-23 11:00N 36°20' E 015°00'611.6
2018-Jun-23 10:30N 36°18' E 015°07'  
2018-Jun-15 08:54N 44°17' E 014°12'1411.9
2018-Jun-15 07:43N 44°30' E 014°04'312.0
2018-Jun-15 07:30N 44°33' E 014°04'911.8
2018-Jun-15 06:45N 44°41' E 014°05'312.6
2018-Jun-15 06:30N 44°44' E 014°07'35 4.0
2018-Jun-14 21:49N 45°15' E 014°30'2 0.1
2018-Jun-13 20:09N 45°13' E 014°32'  

Dump ship's entire track history